Moyer Aviation Incorporated

Pocono Mountains Airport

188 Airport Drive. Tobyhanna, PA 18466 

P: 570-839-7161
800-321-5890
F: 570-839-7162

Weather

Weather

Pocono Weather

KMPO 022153Z AUTO 23010KT 10SM OVC065 08/05 A2957 RMK AO2 SLP024 T00780050

Allentown Weather

KABE 022151Z 00000KT 9SM OVC075 08/06 A2960 RMK AO2 SLP026 T00830056

Wilkes-Barre Weather

KAVP 022154Z 24003KT 10SM BKN060 OVC075 12/06 A2956 RMK AO2 SLP010 T01220056


* required field

Contact Us